Decoded Metar for ORER ( in ) (IATA:) | Meteo·Mobile Aviation Weather
aviador You're here:

ORER Decoded Metar

in
Report Time2018-09-19 14:00:00
UTC Time2018-09-19 14:26:46
Flight Rules vfr VFR
Wind210° at 12 kt
W.Decomp.*RWY 18: 10.4 kt HW 6.0 kt RCW
RWY 15: 6.0 kt HW 10.4 kt RCW
W.Rank210° ranks 25
Current wind is above 210° avg. (6.8)
Visibility8000 m
Phenomena:N/A
Clouds:N/A
Expected CloudBase > 15,600 ft AGL from Temp-Dew spread
CeilingNone
Temp40°C
Dew Point01°C (9% RH)
Heat Index36.8°C
AAT33.9°C
QNH1007 hPa
Raw Report
ORER 191400Z 21012KT 8000 NSC 40/01 Q1007 NOSIG=

Extra information for ORER:More info

Social comments